Time;durP1;ratioP1;P1;durP2;ratioP2;P2;SDS_P1;SDS_P2;PMS_P1;PMS_P2;Temp;Humidity;BMP_temperature;BMP_pressure;BME280_temperature;BME280_humidity;BME280_pressure;Samples;Min_cycle;Max_cycle;Signal;HPM_P1;HPM_P2
2022/05/18 00:00:12;;;;;;;10.00;5.13;;;;;;;19.26;66.94;101875.81;5080463;28;20048;-42
2022/05/18 00:02:38;;;;;;;9.95;5.10;;;;;;;19.17;67.08;101873.16;5077626;28;20519;-42
2022/05/18 00:05:04;;;;;;;9.60;5.28;;;;;;;19.08;67.12;101878.25;5078446;28;20065;-44
2022/05/18 00:07:30;;;;;;;7.10;4.82;;;;;;;19.08;67.02;101878.25;5078753;28;20513;-43
2022/05/18 00:09:56;;;;;;;11.13;5.00;;;;;;;19.09;67.27;101879.13;5081196;28;20036;-43
2022/05/18 00:12:21;;;;;;;9.75;5.22;;;;;;;18.98;67.25;101877.28;5081139;28;20035;-45
2022/05/18 00:14:47;;;;;;;11.45;5.22;;;;;;;18.94;67.94;101885.97;5082420;28;20488;-42
2022/05/18 00:17:12;;;;;;;8.00;5.03;;;;;;;18.88;67.80;101878.09;5077222;28;20660;-43
2022/05/18 00:19:37;;;;;;;12.13;5.03;;;;;;;18.94;67.58;101885.09;5081047;28;20089;-44
2022/05/18 00:22:03;;;;;;;8.35;4.88;;;;;;;18.81;68.47;101880.59;5074922;28;20036;-42
2022/05/18 00:24:29;;;;;;;8.77;5.43;;;;;;;18.75;68.09;101887.50;5079879;28;20373;-42
2022/05/18 00:26:55;;;;;;;10.05;5.47;;;;;;;18.75;68.57;101891.84;5082003;28;20040;-46
2022/05/18 00:29:20;;;;;;;9.05;5.60;;;;;;;18.74;68.56;101892.69;5075251;28;20076;-43
2022/05/18 00:31:48;;;;;;;9.70;5.30;;;;;;;18.68;68.50;101884.78;5078494;28;20039;-46
2022/05/18 00:34:16;;;;;;;8.85;5.03;;;;;;;18.75;68.61;101891.84;5078360;28;20752;-42
2022/05/18 00:36:42;;;;;;;11.68;5.55;;;;;;;18.69;68.89;101886.56;5079169;28;20036;-45
2022/05/18 00:39:07;;;;;;;7.80;5.53;;;;;;;18.70;69.04;101886.56;5073022;28;20055;-42
2022/05/18 00:41:32;;;;;;;13.90;6.85;;;;;;;18.68;69.06;101887.41;5077496;28;20523;-42
2022/05/18 00:43:58;;;;;;;12.23;5.80;;;;;;;18.61;69.72;101893.38;5078133;28;20036;-42
2022/05/18 00:46:25;;;;;;;8.73;5.88;;;;;;;18.66;69.30;101891.69;5077163;28;20511;-42
2022/05/18 00:48:52;;;;;;;14.02;6.10;;;;;;;18.69;69.26;101892.66;5083460;28;20034;-43
2022/05/18 00:51:32;;;;;;;11.93;6.20;;;;;;;18.71;68.99;101887.44;5076341;28;20043;-41
2022/05/18 00:54:11;;;;;;;12.20;6.40;;;;;;;18.70;68.63;101891.78;5079460;28;20032;-44
2022/05/18 00:56:50;;;;;;;;;;;;;;;18.85;67.17;101887.59;5076481;28;20455;-43
2022/05/18 00:59:20;;;;;;;9.57;6.35;;;;;;;18.56;69.18;101893.31;5081016;28;20404;-43
2022/05/18 01:01:46;;;;;;;10.45;6.47;;;;;;;18.45;69.48;101890.59;5078886;28;20030;-45
2022/05/18 01:04:13;;;;;;;10.68;6.85;;;;;;;18.37;69.76;101902.63;5077289;28;20400;-44
2022/05/18 01:06:44;;;;;;;11.45;6.70;;;;;;;18.41;69.70;101894.00;5081881;28;20036;-47
2022/05/18 01:09:25;;;;;;;8.98;6.53;;;;;;;18.46;69.17;101892.34;5081114;28;20040;-44
2022/05/18 01:11:50;;;;;;;12.32;7.45;;;;;;;18.26;70.32;101888.63;5080933;28;20078;-42
2022/05/18 01:14:22;;;;;;;12.70;8.07;;;;;;;18.32;70.05;101893.91;5075426;28;20090;-42
2022/05/18 01:16:49;;;;;;;12.07;6.82;;;;;;;18.25;70.58;101899.00;5078762;28;20492;-44
2022/05/18 01:19:37;;;;;;;12.43;7.50;;;;;;;18.32;69.77;101896.53;5075980;28;20108;-43
2022/05/18 01:22:40;;;;;;;14.32;7.72;;;;;;;18.32;69.87;101893.91;5074933;28;20078;-51
2022/05/18 01:25:24;;;;;;;11.05;9.07;;;;;;;18.20;71.01;101892.03;5075888;28;20023;-43
2022/05/18 01:27:50;;;;;;;13.77;8.60;;;;;;;18.14;71.65;101889.34;5079570;28;20035;-42
2022/05/18 01:30:16;;;;;;;12.60;7.97;;;;;;;18.21;71.34;101885.97;5078672;28;20024;-41
2022/05/18 01:32:47;;;;;;;14.52;8.63;;;;;;;18.31;70.95;101891.28;5078616;28;20048;-43
2022/05/18 01:35:17;;;;;;;16.90;9.25;;;;;;;18.20;71.50;101888.53;5077124;28;20066;-43
2022/05/18 01:37:42;;;;;;;12.52;9.20;;;;;;;18.17;71.55;101889.38;5081075;28;20388;-44
2022/05/18 01:40:16;;;;;;;14.85;8.60;;;;;;;18.23;71.25;101884.25;5081781;28;20043;-41
2022/05/18 01:43:08;;;;;;;11.65;8.38;;;;;;;18.23;71.30;101893.78;5083281;28;20032;-45
2022/05/18 01:45:34;;;;;;;13.75;9.02;;;;;;;18.18;71.29;101890.25;5086313;28;20023;-41
2022/05/18 01:48:30;;;;;;;16.45;9.05;;;;;;;18.28;70.41;101896.47;5083461;28;20032;-46
2022/05/18 01:50:59;;;;;;;11.93;8.82;;;;;;;18.09;71.91;101893.63;5073407;28;20044;-43
2022/05/18 01:53:25;;;;;;;13.95;9.27;;;;;;;18.15;71.87;101885.88;5080234;28;20043;-42
2022/05/18 01:55:50;;;;;;;12.32;9.52;;;;;;;18.06;72.19;101890.94;5087088;28;20023;-44
2022/05/18 01:58:16;;;;;;;15.90;9.68;;;;;;;18.09;71.92;101890.13;5079973;28;20602;-44
2022/05/18 02:00:44;;;;;;;12.05;9.30;;;;;;;18.07;72.08;101886.63;5085000;28;20032;-42
2022/05/18 02:03:10;;;;;;;14.23;9.30;;;;;;;18.03;72.04;101885.72;5080983;28;20038;-43
2022/05/18 02:05:36;;;;;;;9.02;8.13;;;;;;;18.07;72.21;101894.44;5084024;28;20543;-43
2022/05/18 02:08:02;;;;;;;12.18;8.88;;;;;;;18.05;71.97;101901.34;5082434;28;20510;-42
2022/05/18 02:10:28;;;;;;;15.02;9.40;;;;;;;18.02;72.04;101898.69;5081561;28;20112;-42
2022/05/18 02:12:53;;;;;;;14.95;8.98;;;;;;;17.98;72.15;101892.59;5086451;28;20177;-42
2022/05/18 02:15:19;;;;;;;15.85;9.40;;;;;;;17.86;72.47;101889.81;5083568;28;20039;-42
2022/05/18 02:17:45;;;;;;;15.65;9.50;;;;;;;17.88;72.28;101886.38;5084412;28;20033;-42
2022/05/18 02:20:12;;;;;;;13.68;9.27;;;;;;;17.95;72.18;101884.72;5077026;28;20039;-44
2022/05/18 02:22:38;;;;;;;17.50;9.15;;;;;;;17.95;72.21;101883.00;5082374;28;20081;-45
2022/05/18 02:25:03;;;;;;;13.85;9.40;;;;;;;17.89;72.42;101885.50;5080436;28;20553;-47
2022/05/18 02:27:29;;;;;;;14.00;9.30;;;;;;;17.91;72.46;101881.22;5079048;28;20028;-43
2022/05/18 02:29:55;;;;;;;13.77;9.05;;;;;;;17.85;72.33;101878.53;5078774;28;20040;-44
2022/05/18 02:32:20;;;;;;;11.73;8.80;;;;;;;17.90;72.54;101878.59;5081115;28;20094;-43
2022/05/18 02:34:46;;;;;;;15.95;9.25;;;;;;;17.82;72.11;101875.00;5081320;28;20028;-43
2022/05/18 02:37:11;;;;;;;13.13;9.60;;;;;;;17.86;72.38;101877.66;5081964;28;20119;-44
2022/05/18 02:39:37;;;;;;;16.30;9.27;;;;;;;17.82;72.49;101882.81;5082517;28;20028;-42
2022/05/18 02:42:02;;;;;;;15.45;9.52;;;;;;;17.74;72.53;101881.81;5079194;28;20028;-42
2022/05/18 02:44:28;;;;;;;14.02;9.18;;;;;;;17.78;72.80;101888.84;5084712;28;20035;-42
2022/05/18 02:46:59;;;;;;;15.55;9.30;;;;;;;17.74;72.54;101882.69;5083343;28;20020;-41
2022/05/18 02:49:25;;;;;;;13.57;9.35;;;;;;;17.69;72.74;101882.59;5079889;28;20039;-41
2022/05/18 02:51:51;;;;;;;13.60;8.88;;;;;;;17.74;72.91;101884.44;5081500;28;20043;-41
2022/05/18 02:57:01;;;;;;;11.85;8.55;;;;;;;17.77;72.49;101880.13;5080332;28;20164;-42
2022/05/18 02:59:27;;;;;;;13.05;8.75;;;;;;;17.75;72.54;101878.38;5080474;28;20495;-45
2022/05/18 03:01:52;;;;;;;9.73;7.95;;;;;;;17.69;72.62;101885.19;5077000;28;20047;-42
2022/05/18 03:04:18;;;;;;;15.75;8.25;;;;;;;17.65;72.87;101886.03;5081672;28;20107;-41
2022/05/18 03:06:44;;;;;;;13.70;8.40;;;;;;;17.68;72.60;101886.03;5084338;28;20111;-43
2022/05/18 03:09:10;;;;;;;15.95;8.85;;;;;;;17.67;72.62;101880.81;5083499;28;20547;-43
2022/05/18 03:11:35;;;;;;;12.48;8.40;;;;;;;17.68;72.85;101888.66;5078472;28;20102;-44
2022/05/18 03:14:01;;;;;;;14.10;8.32;;;;;;;17.63;72.81;101889.44;5078380;28;20038;-42
2022/05/18 03:16:27;;;;;;;11.90;8.10;;;;;;;17.68;72.30;101895.59;5077801;28;20119;-41
2022/05/18 03:18:53;;;;;;;13.25;8.13;;;;;;;17.58;72.64;101896.28;5083324;28;20364;-41
2022/05/18 03:24:03;;;;;;;13.30;7.78;;;;;;;17.56;72.72;101898.88;5080071;28;20051;-46
2022/05/18 03:26:29;;;;;;;9.90;7.88;;;;;;;17.60;72.61;101905.88;5083454;28;20032;-42
2022/05/18 03:28:56;;;;;;;13.27;9.00;;;;;;;17.56;72.92;101906.66;5078555;28;20050;-44
2022/05/18 03:31:22;;;;;;;13.43;7.78;;;;;;;17.61;72.82;101914.56;5081993;28;20575;-42
2022/05/18 03:33:48;;;;;;;10.63;7.80;;;;;;;17.56;73.22;101914.47;5078073;28;20032;-42
2022/05/18 03:36:15;;;;;;;13.93;7.93;;;;;;;17.57;73.47;101920.53;5082722;28;20077;-42
2022/05/18 03:38:42;;;;;;;11.68;7.80;;;;;;;17.53;73.67;101924.81;5083957;28;20036;-41
2022/05/18 03:41:09;;;;;;;12.07;8.05;;;;;;;17.58;73.44;101922.28;5080020;28;20119;-44
2022/05/18 03:43:35;;;;;;;14.90;8.18;;;;;;;17.60;73.26;101916.28;5078349;28;20035;-44
2022/05/18 03:46:01;;;;;;;13.15;7.60;;;;;;;17.65;73.75;101924.13;5078068;28;20111;-44
2022/05/18 03:48:27;;;;;;;12.73;7.65;;;;;;;17.62;73.42;101921.50;5082716;28;20153;-42
2022/05/18 03:50:54;;;;;;;12.90;8.00;;;;;;;17.55;73.66;101915.31;5082110;28;20527;-42
2022/05/18 03:53:20;;;;;;;9.70;7.75;;;;;;;17.62;74.01;101921.50;5076719;28;20068;-42
2022/05/18 03:55:46;;;;;;;11.57;7.80;;;;;;;17.59;73.71;101919.69;5081196;28;20101;-41
2022/05/18 03:58:13;;;;;;;13.70;8.20;;;;;;;17.62;73.67;101922.38;5077774;28;20083;-42
2022/05/18 04:00:41;;;;;;;10.90;7.30;;;;;;;17.58;73.93;101917.97;5078812;28;20059;-42
2022/05/18 04:03:08;;;;;;;14.30;8.20;;;;;;;17.58;74.36;101922.28;5080182;28;20384;-41
2022/05/18 04:05:37;;;;;;;9.65;7.82;;;;;;;17.61;73.92;101923.22;5081478;28;20032;-45
2022/05/18 04:08:02;;;;;;;12.07;8.32;;;;;;;17.58;74.27;101924.88;5083149;28;20072;-43
2022/05/18 04:10:28;;;;;;;15.13;8.23;;;;;;;17.60;73.97;101923.22;5080399;28;20481;-43
2022/05/18 04:12:53;;;;;;;18.20;8.75;;;;;;;17.62;74.09;101919.75;5081347;28;20951;-42
2022/05/18 04:15:19;;;;;;;11.38;7.75;;;;;;;17.57;74.57;101921.41;5073895;28;20024;-42
2022/05/18 04:17:46;;;;;;;14.40;8.02;;;;;;;17.57;74.54;101924.00;5075531;28;20050;-42
2022/05/18 04:20:14;;;;;;;11.40;8.13;;;;;;;17.64;74.36;101928.47;5074675;28;21617;-43
2022/05/18 04:22:40;;;;;;;11.48;8.20;;;;;;;17.63;74.67;101931.91;5078843;28;20054;-46
2022/05/18 04:25:06;;;;;;;11.65;7.85;;;;;;;17.65;74.45;101931.94;5077446;28;21395;-43
2022/05/18 04:27:32;;;;;;;13.35;8.48;;;;;;;17.72;74.41;101930.38;5076986;28;20033;-41
2022/05/18 04:29:57;;;;;;;11.05;8.05;;;;;;;17.69;74.13;101928.53;5077095;28;20042;-43
2022/05/18 04:32:24;;;;;;;11.30;8.10;;;;;;;17.74;74.46;101939.94;5078168;28;20074;-42
2022/05/18 04:34:50;;;;;;;11.10;8.30;;;;;;;17.77;74.32;101946.91;5080861;28;20023;-41
2022/05/18 04:37:19;;;;;;;11.70;7.93;;;;;;;17.81;74.25;101943.50;5079047;28;20032;-42
2022/05/18 04:39:45;;;;;;;14.45;8.13;;;;;;;17.84;74.50;101944.44;5080778;28;20527;-41
2022/05/18 04:42:11;;;;;;;10.98;7.80;;;;;;;17.88;74.48;101942.72;5081190;28;20073;-42
2022/05/18 04:44:37;;;;;;;12.32;8.88;;;;;;;17.90;74.06;101941.06;5062665;28;20036;-43
2022/05/18 04:47:03;;;;;;;12.63;8.18;;;;;;;17.97;73.91;101942.88;5078330;28;20036;-41
2022/05/18 04:49:29;;;;;;;12.35;8.38;;;;;;;18.03;74.37;101940.38;5079353;28;20047;-43
2022/05/18 04:51:55;;;;;;;13.88;8.55;;;;;;;18.05;74.25;101956.88;5077844;28;20142;-49
2022/05/18 04:54:20;;;;;;;12.80;8.30;;;;;;;18.04;74.04;101955.13;5078543;28;20385;-41
2022/05/18 04:56:45;;;;;;;13.70;8.10;;;;;;;18.10;74.11;101959.56;5081148;28;21028;-43
2022/05/18 04:59:12;;;;;;;11.93;7.95;;;;;;;18.14;74.60;101956.13;5079547;28;20408;-42
2022/05/18 05:01:38;;;;;;;10.70;8.02;;;;;;;18.16;73.94;101964.84;5078710;28;20047;-44
2022/05/18 05:04:09;;;;;;;12.07;8.18;;;;;;;18.16;74.46;101965.72;5075974;28;20036;-42
2022/05/18 05:06:35;;;;;;;12.93;8.43;;;;;;;18.19;73.96;101968.34;5082182;28;20024;-41
2022/05/18 05:09:00;;;;;;;12.98;8.00;;;;;;;18.21;73.25;101971.88;5078426;28;20029;-43
2022/05/18 05:11:25;;;;;;;11.15;8.20;;;;;;;18.19;73.50;101972.69;5077728;28;20024;-43
2022/05/18 05:13:51;;;;;;;16.35;8.93;;;;;;;18.23;73.38;101977.97;5076559;28;20052;-43
2022/05/18 05:16:16;;;;;;;18.02;8.35;;;;;;;18.22;73.55;101978.81;5081572;28;20547;-43
2022/05/18 05:18:41;;;;;;;13.50;8.43;;;;;;;18.26;73.13;101979.75;5081836;28;20394;-42
2022/05/18 05:21:07;;;;;;;15.77;8.55;;;;;;;18.31;73.05;101977.19;5081515;28;20027;-43
2022/05/18 05:23:32;;;;;;;11.48;8.15;;;;;;;18.40;73.29;101977.34;5078643;28;20389;-44
2022/05/18 05:25:59;;;;;;;11.70;8.18;;;;;;;18.51;73.41;101986.16;5079085;28;20035;-44
2022/05/18 05:28:25;;;;;;;12.80;7.80;;;;;;;18.63;72.44;101988.06;5079706;28;20028;-43
2022/05/18 05:30:52;;;;;;;10.13;7.55;;;;;;;18.75;72.59;101991.72;5080881;28;20040;-43
2022/05/18 05:33:18;;;;;;;11.52;7.82;;;;;;;18.85;72.47;101994.44;5079872;28;20016;-42
2022/05/18 05:35:44;;;;;;;12.15;7.03;;;;;;;18.91;72.24;101989.28;5080133;28;20450;-43
2022/05/18 05:38:10;;;;;;;11.00;7.05;;;;;;;18.93;71.14;101998.03;5075984;28;20032;-45
2022/05/18 05:40:37;;;;;;;15.20;7.28;;;;;;;18.95;71.37;101994.56;5077764;28;20412;-42
2022/05/18 05:43:10;;;;;;;10.90;6.55;;;;;;;19.00;71.72;102002.44;5080370;28;20668;-43
2022/05/18 05:45:36;;;;;;;13.35;6.10;;;;;;;19.00;70.88;101994.63;5080140;28;20492;-41
2022/05/18 05:48:03;;;;;;;8.75;6.10;;;;;;;19.04;70.27;101996.38;5078793;28;20039;-46
2022/05/18 05:50:30;;;;;;;11.57;6.57;;;;;;;19.05;71.58;102000.78;5079191;28;20090;-45
2022/05/18 05:52:57;;;;;;;10.43;6.18;;;;;;;19.10;70.70;102000.78;5079564;28;20118;-42
2022/05/18 05:55:22;;;;;;;8.82;5.93;;;;;;;19.15;70.32;102006.94;5082120;28;20028;-43
2022/05/18 05:57:48;;;;;;;11.52;6.53;;;;;;;19.17;70.55;102005.22;5079365;28;20074;-42
2022/05/18 06:00:14;;;;;;;15.43;6.60;;;;;;;19.23;70.81;102005.28;5075697;28;20053;-43
2022/05/18 06:02:40;;;;;;;13.48;6.85;;;;;;;19.28;70.31;102008.81;5078506;28;20557;-45
2022/05/18 06:05:05;;;;;;;11.43;7.15;;;;;;;19.36;70.13;102016.75;5076628;28;20055;-43
2022/05/18 06:07:32;;;;;;;10.50;6.95;;;;;;;19.38;69.47;102013.28;5079252;28;20529;-46
2022/05/18 06:09:57;;;;;;;10.43;6.20;;;;;;;19.45;68.70;102014.22;5078334;28;20024;-42
2022/05/18 06:12:26;;;;;;;8.55;6.30;;;;;;;19.50;69.41;102009.91;5077264;28;20036;-42
2022/05/18 06:14:52;;;;;;;8.25;5.63;;;;;;;19.53;69.53;102018.63;5078756;28;20028;-42
2022/05/18 06:17:17;;;;;;;10.48;5.45;;;;;;;19.55;69.70;102023.88;5078113;28;20077;-44
2022/05/18 06:19:43;;;;;;;11.13;5.20;;;;;;;19.58;69.23;102028.25;5078412;28;20028;-41
2022/05/18 06:22:08;;;;;;;11.27;5.22;;;;;;;19.59;68.10;102033.50;5076740;28;20036;-42
2022/05/18 06:24:34;;;;;;;6.10;4.88;;;;;;;19.63;68.79;102043.13;5082385;28;21000;-43
2022/05/18 06:27:00;;;;;;;7.25;5.10;;;;;;;19.65;67.75;102044.00;5081645;28;20488;-44
2022/05/18 06:29:26;;;;;;;8.80;4.72;;;;;;;19.65;68.40;102050.94;5082744;28;20494;-43
2022/05/18 06:31:52;;;;;;;8.35;5.10;;;;;;;19.69;68.25;102050.13;5079743;28;20047;-42
2022/05/18 06:34:21;;;;;;;7.43;4.32;;;;;;;19.68;69.28;102040.56;5082606;28;20457;-43
2022/05/18 06:36:46;;;;;;;10.57;5.00;;;;;;;19.70;69.22;102057.97;5079682;28;20028;-42
2022/05/18 06:39:11;;;;;;;10.93;4.75;;;;;;;19.74;69.25;102056.28;5081172;28;20039;-43
2022/05/18 06:41:37;;;;;;;8.73;4.93;;;;;;;19.76;68.99;102057.16;5080460;28;20068;-42
2022/05/18 06:44:04;;;;;;;7.82;4.72;;;;;;;19.77;68.61;102056.28;5082334;28;20053;-43
2022/05/18 06:46:34;;;;;;;12.85;4.88;;;;;;;19.80;68.56;102049.38;5083961;28;20553;-43
2022/05/18 06:49:01;;;;;;;11.88;5.05;;;;;;;19.85;68.55;102053.75;5081397;28;20093;-47
2022/05/18 06:51:30;;;;;;;11.38;5.00;;;;;;;19.87;67.70;102058.13;5081683;28;20041;-46
2022/05/18 06:53:57;;;;;;;8.68;5.03;;;;;;;19.93;67.70;102057.31;5082464;28;20488;-43
2022/05/18 06:56:26;;;;;;;13.60;5.30;;;;;;;19.96;68.23;102057.31;5086208;28;20024;-43
2022/05/18 06:58:53;;;;;;;13.60;5.05;;;;;;;19.96;67.64;102058.22;5078279;28;20097;-48
2022/05/18 07:01:19;;;;;;;17.10;5.10;;;;;;;20.01;67.54;102068.66;5083609;28;20036;-43
2022/05/18 07:03:45;;;;;;;11.93;5.55;;;;;;;20.03;67.35;102064.34;5080778;28;20034;-46
2022/05/18 07:06:12;;;;;;;7.70;5.43;;;;;;;20.03;67.62;102065.22;5082587;28;20056;-42
2022/05/18 07:08:38;;;;;;;9.30;5.15;;;;;;;20.05;67.72;102068.72;5078925;28;20105;-42
2022/05/18 07:11:04;;;;;;;11.60;5.68;;;;;;;20.12;66.91;102076.59;5079838;28;20036;-42
2022/05/18 07:13:34;;;;;;;9.70;5.53;;;;;;;20.23;67.88;102075.81;5078339;28;20036;-45
2022/05/18 07:16:00;;;;;;;11.88;6.28;;;;;;;20.38;66.95;102085.50;5077202;28;20050;-43
2022/05/18 07:18:30;;;;;;;12.95;7.10;;;;;;;20.51;66.29;102083.91;5076288;28;20033;-42
2022/05/18 07:20:57;;;;;;;15.60;7.63;;;;;;;20.63;64.57;102091.81;5081700;28;20043;-42
2022/05/18 07:23:23;;;;;;;13.63;7.57;;;;;;;20.83;64.34;102090.16;5078726;28;20036;-44
2022/05/18 07:25:50;;;;;;;19.27;8.57;;;;;;;20.94;63.76;102081.53;5070002;28;20037;-45
2022/05/18 07:28:16;;;;;;;14.38;8.90;;;;;;;21.12;63.36;102085.09;5062088;28;20027;-45
2022/05/18 07:30:41;;;;;;;14.98;8.48;;;;;;;21.37;63.61;102090.44;5076124;28;20508;-41
2022/05/18 07:33:06;;;;;;;13.88;8.85;;;;;;;21.48;63.04;102080.88;5078148;28;20083;-43
2022/05/18 07:35:32;;;;;;;14.05;7.93;;;;;;;21.71;62.47;102085.25;5078200;28;20024;-45
2022/05/18 07:37:58;;;;;;;14.25;7.32;;;;;;;21.86;63.22;102091.38;5077958;28;20079;-45
2022/05/18 07:40:24;;;;;;;16.42;7.78;;;;;;;21.97;61.87;102075.69;5076241;28;20451;-44
2022/05/18 07:42:52;;;;;;;9.00;6.25;;;;;;;22.14;62.24;102078.31;5071742;28;20044;-42
2022/05/18 07:45:20;;;;;;;11.33;6.97;;;;;;;22.10;62.56;102076.59;5081118;28;20479;-44
2022/05/18 07:47:46;;;;;;;11.57;6.85;;;;;;;22.05;61.69;102083.53;5077754;28;20460;-45
2022/05/18 07:50:12;;;;;;;14.43;6.57;;;;;;;22.13;61.87;102087.91;5078609;28;20039;-45
2022/05/18 07:52:38;;;;;;;15.80;6.60;;;;;;;22.18;61.70;102090.56;5081271;28;20050;-42
2022/05/18 07:55:04;;;;;;;11.55;6.68;;;;;;;22.19;62.13;102092.28;5050578;28;20471;-42
2022/05/18 07:57:30;;;;;;;11.75;6.88;;;;;;;22.12;61.79;102090.56;5082749;28;20036;-43
2022/05/18 07:59:59;;;;;;;13.25;7.03;;;;;;;22.10;62.30;102087.94;5077784;28;20098;-43
2022/05/18 08:02:25;;;;;;;9.25;6.63;;;;;;;22.08;62.39;102094.88;5083376;28;20054;-42
2022/05/18 08:04:51;;;;;;;11.35;6.95;;;;;;;22.04;62.79;102097.50;5079812;28;20555;-45
2022/05/18 08:07:17;;;;;;;13.43;6.47;;;;;;;22.05;62.82;102099.25;5082501;28;20111;-42
2022/05/18 08:15:10;;;;;;;10.18;7.35;;;;;;;22.09;62.70;102101.91;5081990;28;20051;-44
2022/05/18 08:17:36;;;;;;;12.20;7.80;;;;;;;22.12;63.39;102098.41;5081636;28;20020;-42
2022/05/18 08:20:06;;;;;;;16.42;8.52;;;;;;;22.14;62.79;102104.50;5080009;28;20083;-44
2022/05/18 08:22:32;;;;;;;11.55;7.72;;;;;;;22.33;63.41;102103.66;5084056;28;20024;-42
2022/05/18 08:24:57;;;;;;;13.57;7.65;;;;;;;22.43;61.78;102102.75;5076297;28;20043;-45
2022/05/18 08:27:23;;;;;;;15.05;8.48;;;;;;;22.59;61.88;102102.75;5079547;28;20039;-43
2022/05/18 08:29:48;;;;;;;12.20;7.65;;;;;;;22.61;62.15;102106.22;5074675;28;20028;-45
2022/05/18 08:32:13;;;;;;;14.65;8.63;;;;;;;22.66;61.91;102113.19;5075885;28;20676;-43
2022/05/18 08:34:39;;;;;;;15.75;8.10;;;;;;;22.75;61.60;102110.56;5079466;28;20028;-42
2022/05/18 08:37:04;;;;;;;14.75;7.90;;;;;;;22.96;61.78;102111.41;5082765;28;20083;-45
2022/05/18 08:39:30;;;;;;;13.45;7.93;;;;;;;23.04;61.76;102111.38;5081349;28;20833;-43
2022/05/18 08:41:57;;;;;;;14.43;7.75;;;;;;;23.17;62.12;102120.94;5078668;28;20074;-45
2022/05/18 08:44:28;;;;;;;16.55;7.70;;;;;;;23.27;61.59;102120.91;5083577;28;20093;-43
2022/05/18 08:46:53;;;;;;;10.85;6.90;;;;;;;23.38;61.32;102122.59;5084703;28;20040;-43
2022/05/18 08:49:33;;;;;;;14.35;7.50;;;;;;;23.47;60.78;102127.78;5082139;28;20697;-42
2022/05/18 08:52:26;;;;;;;11.15;6.75;;;;;;;23.60;61.06;102123.34;5078072;28;20080;-43
2022/05/18 08:55:28;;;;;;;12.00;7.53;;;;;;;23.69;60.51;102123.31;5078267;28;20030;-45
2022/05/18 08:57:57;;;;;;;12.30;6.97;;;;;;;23.78;60.08;102115.38;5080031;28;20081;-43
2022/05/18 09:00:55;;;;;;;13.77;8.40;;;;;;;23.89;59.72;102123.19;5080784;28;20047;-47
2022/05/18 09:03:28;;;;;;;16.30;8.10;;;;;;;23.94;59.20;102129.28;5057308;28;20048;-45
2022/05/18 09:06:02;;;;;;;11.93;7.40;;;;;;;24.07;59.46;102121.28;5077500;28;20040;-46
2022/05/18 09:08:35;;;;;;;11.02;7.63;;;;;;;24.09;59.76;102123.94;5080897;28;20039;-46
2022/05/18 09:11:03;;;;;;;13.60;7.43;;;;;;;24.21;58.51;102122.97;5082455;28;20036;-44
2022/05/18 09:13:29;;;;;;;10.25;7.35;;;;;;;24.22;59.32;102122.06;5075949;28;20568;-43
2022/05/18 09:16:06;;;;;;;10.65;7.88;;;;;;;24.31;59.13;102121.97;5076241;28;20388;-46
2022/05/18 09:18:52;;;;;;;11.88;8.27;;;;;;;24.36;58.82;102117.56;5074205;28;20127;-45
2022/05/18 09:21:46;;;;;;;10.60;6.93;;;;;;;24.44;59.09;102114.88;5075480;28;20020;-45
2022/05/18 09:24:20;;;;;;;10.35;7.13;;;;;;;24.56;58.36;102107.72;5070534;28;20042;-46
2022/05/18 09:27:14;;;;;;;10.75;6.60;;;;;;;24.72;58.59;102118.09;5076178;28;20044;-45
2022/05/18 09:30:05;;;;;;;8.00;5.68;;;;;;;24.73;56.94;102120.72;5077220;28;20032;-43
2022/05/18 09:32:52;;;;;;;9.70;5.30;;;;;;;24.74;56.25;102121.56;5075762;28;20082;-43
2022/05/18 09:35:27;;;;;;;10.60;4.43;;;;;;;24.67;55.74;102122.53;5074763;28;20036;-44
2022/05/18 09:38:03;;;;;;;7.65;4.18;;;;;;;24.64;56.01;102119.94;5077282;28;20020;-44
2022/05/18 09:40:43;;;;;;;3.45;1.92;;;;;;;24.69;55.02;102126.00;5079081;28;20059;-46
2022/05/18 09:43:28;;;;;;;8.57;3.50;;;;;;;24.73;55.08;102112.81;5075670;28;20028;-43
2022/05/18 09:45:55;;;;;;;10.15;4.50;;;;;;;24.72;54.97;102124.22;5075887;28;20039;-47
2022/05/18 09:48:44;;;;;;;5.93;2.97;;;;;;;24.84;54.95;102120.59;5078271;28;20055;-46
2022/05/18 09:51:10;;;;;;;8.05;2.95;;;;;;;25.04;54.60;102125.63;5077696;28;20028;-46
2022/05/18 09:53:38;;;;;;;10.77;2.60;;;;;;;25.07;53.73;102123.00;5077583;28;20408;-43
2022/05/18 09:56:09;;;;;;;6.63;2.55;;;;;;;25.05;54.43;102125.63;5077046;28;20391;-44
2022/05/18 09:58:38;;;;;;;6.85;2.85;;;;;;;25.09;53.84;102116.81;5079328;28;20468;-44
2022/05/18 10:09:45;;;;;;;6.53;2.30;;;;;;;25.25;51.48;102124.53;5080146;28;20096;-45
2022/05/18 10:12:31;;;;;;;7.15;2.38;;;;;;;25.29;51.38;102124.44;5081115;28;20036;-44
2022/05/18 10:15:03;;;;;;;5.53;2.10;;;;;;;25.41;51.43;102121.66;5076569;28;20810;-44
2022/05/18 10:17:38;;;;;;;7.47;1.95;;;;;;;25.54;50.72;102130.28;5081966;28;20409;-43
2022/05/18 10:20:11;;;;;;;4.78;1.83;;;;;;;25.69;49.89;102118.63;5084170;28;20449;-43
2022/05/18 10:22:44;;;;;;;4.07;1.67;;;;;;;25.78;49.71;102112.38;5081741;28;20024;-45
2022/05/18 10:25:14;;;;;;;3.95;1.60;;;;;;;25.82;48.69;102114.06;5078930;28;20395;-47
2022/05/18 10:27:44;;;;;;;4.93;1.50;;;;;;;25.99;49.03;102117.31;5080411;28;20476;-44
2022/05/18 10:30:28;;;;;;;3.20;1.40;;;;;;;26.10;49.12;102125.94;5081238;28;20377;-43
2022/05/18 10:32:58;;;;;;;4.93;1.80;;;;;;;26.27;48.67;102122.09;5079806;28;20031;-45
2022/05/18 10:35:53;;;;;;;4.05;1.77;;;;;;;26.32;48.75;102120.28;5081141;28;20024;-54
2022/05/18 10:38:32;;;;;;;7.75;1.60;;;;;;;26.41;48.50;102118.38;5080160;28;20529;-49
2022/05/18 10:41:03;;;;;;;6.68;1.90;;;;;;;26.40;47.31;102110.47;5080986;28;20492;-44
2022/05/18 10:43:53;;;;;;;6.18;2.08;;;;;;;26.35;48.35;102113.19;5081459;28;20039;-43
2022/05/18 10:46:39;;;;;;;3.72;1.70;;;;;;;26.14;48.52;102108.28;5079297;28;20028;-43
2022/05/18 10:49:10;;;;;;;4.00;1.65;;;;;;;26.04;48.91;102112.84;5081479;28;20020;-44
2022/05/18 10:51:38;;;;;;;4.75;2.10;;;;;;;25.91;48.61;102108.69;5079100;28;20077;-43
2022/05/18 10:54:26;;;;;;;4.90;1.60;;;;;;;25.99;49.36;102101.50;5081117;28;20032;-43
2022/05/18 10:57:09;;;;;;;8.32;1.95;;;;;;;25.92;49.10;102106.00;5080821;28;20024;-42
2022/05/18 11:00:15;;;;;;;3.25;1.58;;;;;;;25.98;49.73;102099.78;5081151;28;20093;-45
2022/05/18 11:02:55;;;;;;;5.53;1.50;;;;;;;26.03;49.89;102102.31;5018239;28;20037;-45
2022/05/18 11:05:39;;;;;;;1.77;1.60;;;;;;;26.06;49.56;102103.13;5075417;28;20054;-43
2022/05/18 11:08:13;;;;;;;4.07;1.58;;;;;;;26.08;49.37;102113.66;5079530;28;20043;-44
2022/05/18 11:11:00;;;;;;;5.15;2.00;;;;;;;26.11;49.14;102106.56;5076853;28;20035;-44
2022/05/18 11:13:50;;;;;;;10.70;4.97;;;;;;;26.07;48.10;102104.88;5079711;28;20071;-44
2022/05/18 11:16:49;;;;;;;9.73;5.93;;;;;;;25.90;48.05;102101.63;5076885;28;20090;-44
2022/05/18 11:19:31;;;;;;;12.13;8.80;;;;;;;25.89;48.95;102095.50;5075862;28;20036;-44
2022/05/18 11:22:18;;;;;;;3.13;2.00;;;;;;;25.95;48.85;102102.44;5079595;28;20056;-44
2022/05/18 11:25:01;;;;;;;6.75;2.15;;;;;;;26.00;49.20;102087.44;5080994;28;20132;-47
2022/05/18 11:27:55;;;;;;;4.97;2.40;;;;;;;26.03;48.99;102094.41;5080359;28;20036;-44
2022/05/18 11:30:36;;;;;;;4.38;1.98;;;;;;;26.07;49.11;102094.31;5077568;28;20052;-46
2022/05/18 11:33:14;;;;;;;3.92;1.75;;;;;;;26.17;49.66;102102.97;5079700;28;20077;-48
2022/05/18 11:36:14;;;;;;;4.55;1.80;;;;;;;26.15;49.03;102091.59;5082513;28;20028;-44
2022/05/18 11:39:00;;;;;;;5.18;1.90;;;;;;;26.18;49.21;102096.78;5016878;28;20374;-44
2022/05/18 11:41:43;;;;;;;3.78;2.20;;;;;;;26.14;48.93;102090.69;5076204;28;20768;-48
2022/05/18 11:44:43;;;;;;;5.85;1.98;;;;;;;26.18;49.23;102080.97;5078524;28;20024;-46
2022/05/18 11:47:41;;;;;;;6.93;2.10;;;;;;;26.18;49.04;102087.13;5077597;28;20036;-43
2022/05/18 11:50:37;;;;;;;5.80;2.30;;;;;;;26.17;48.14;102084.50;5069784;28;20361;-45
2022/05/18 11:53:11;;;;;;;3.92;2.05;;;;;;;26.10;48.86;102085.53;5038321;28;20043;-52